Time;durP1;ratioP1;P1;durP2;ratioP2;P2;SDS_P1;SDS_P2;PMS_P1;PMS_P2;Temp;Humidity;BMP_temperature;BMP_pressure;BME280_temperature;BME280_humidity;BME280_pressure;Samples;Min_cycle;Max_cycle;Signal;HPM_P1;HPM_P2
2022/07/09 00:00:34;;;;;;;4.72;2.10;;;;;;;;;;5028532;28;20706;-41
2022/07/09 00:03:00;;;;;;;13.38;2.38;;;;;;;;;;5029136;28;20030;-41
2022/07/09 00:05:26;;;;;;;9.02;2.22;;;;;;;;;;5027639;28;20053;-40
2022/07/09 00:07:52;;;;;;;6.75;2.05;;;;;;;;;;5030012;28;20033;-41
2022/07/09 00:10:18;;;;;;;9.30;2.30;;;;;;;;;;5025710;28;20540;-41
2022/07/09 00:12:44;;;;;;;1.83;1.48;;;;;;;;;;5028344;28;20037;-44
2022/07/09 00:15:10;;;;;;;4.10;2.10;;;;;;;;;;5026906;28;20566;-43
2022/07/09 00:17:36;;;;;;;4.45;1.90;;;;;;;;;;5027642;28;20025;-41
2022/07/09 00:20:04;;;;;;;6.30;2.45;;;;;;;;;;5026512;28;20037;-42
2022/07/09 00:22:33;;;;;;;7.82;2.00;;;;;;;;;;5028599;28;20390;-41
2022/07/09 00:25:01;;;;;;;6.50;2.00;;;;;;;;;;5028065;28;20021;-41
2022/07/09 00:27:28;;;;;;;11.95;2.42;;;;;;;;;;5028667;28;20094;-41
2022/07/09 00:29:54;;;;;;;10.73;2.40;;;;;;;;;;5026377;28;20041;-41
2022/07/09 00:32:20;;;;;;;7.50;1.80;;;;;;;;;;5051332;28;20025;-43
2022/07/09 00:34:46;;;;;;;3.33;1.83;;;;;;;;;;5026151;28;20044;-42
2022/07/09 00:37:12;;;;;;;5.03;2.20;;;;;;;;;;5028171;28;20394;-44
2022/07/09 00:39:38;;;;;;;8.70;1.63;;;;;;;;;;5025713;28;20026;-43
2022/07/09 00:42:10;;;;;;;7.40;1.98;;;;;;;;;;5026459;28;20449;-41
2022/07/09 00:44:36;;;;;;;4.60;1.98;;;;;;;;;;5023126;28;20040;-41
2022/07/09 00:47:07;;;;;;;4.63;1.83;;;;;;;;;;5025152;28;20038;-41
2022/07/09 00:49:37;;;;;;;3.83;2.17;;;;;;;;;;5028970;28;20037;-44
2022/07/09 00:52:05;;;;;;;5.95;1.80;;;;;;;;;;5028062;28;20065;-47
2022/07/09 00:54:31;;;;;;;6.03;2.33;;;;;;;;;;5025289;28;20080;-41
2022/07/09 00:56:57;;;;;;;4.85;2.30;;;;;;;;;;5025815;28;20160;-41
2022/07/09 00:59:23;;;;;;;6.55;2.05;;;;;;;;;;5026659;28;20036;-40
2022/07/09 01:01:50;;;;;;;11.55;2.28;;;;;;;;;;5023917;28;20033;-41
2022/07/09 01:04:16;;;;;;;2.67;2.10;;;;;;;;;;5028090;28;20375;-44
2022/07/09 01:06:42;;;;;;;4.45;1.80;;;;;;;;;;5025467;28;20171;-41
2022/07/09 01:09:09;;;;;;;2.65;1.90;;;;;;;;;;5027490;28;20112;-43
2022/07/09 01:11:35;;;;;;;4.40;2.50;;;;;;;;;;5025357;28;20025;-44
2022/07/09 01:14:01;;;;;;;3.88;2.00;;;;;;;;;;5026611;28;20506;-41
2022/07/09 01:16:35;;;;;;;8.23;2.17;;;;;;;;;;5028008;28;20036;-42
2022/07/09 01:19:01;;;;;;;5.95;2.50;;;;;;;;;;5027700;28;20042;-39
2022/07/09 01:21:27;;;;;;;4.60;2.10;;;;;;;;;;5027722;28;20088;-44
2022/07/09 01:23:53;;;;;;;5.07;2.13;;;;;;;;;;5024890;28;20045;-43
2022/07/09 01:26:22;;;;;;;4.25;2.22;;;;;;;;;;5026879;28;20041;-45
2022/07/09 01:28:48;;;;;;;7.28;2.28;;;;;;;;;;5026638;28;20021;-48
2022/07/09 01:31:14;;;;;;;7.22;2.15;;;;;;;;;;5028271;28;20025;-41
2022/07/09 01:33:40;;;;;;;6.22;2.28;;;;;;;;;;5026177;28;20029;-42
2022/07/09 01:36:07;;;;;;;3.72;2.10;;;;;;;;;;5027366;28;20030;-46
2022/07/09 01:38:33;;;;;;;2.67;1.95;;;;;;;;;;5025941;28;20083;-41
2022/07/09 01:40:59;;;;;;;7.07;2.40;;;;;;;;;;5023686;28;20029;-41
2022/07/09 01:43:25;;;;;;;6.68;2.28;;;;;;;;;;5029457;28;20036;-44
2022/07/09 01:45:50;;;;;;;4.45;2.10;;;;;;;;;;5024713;28;20482;-43
2022/07/09 01:48:16;;;;;;;4.07;2.20;;;;;;;;;;5025296;28;20055;-41
2022/07/09 01:50:42;;;;;;;7.57;2.22;;;;;;;;;;5026415;28;20029;-41
2022/07/09 01:53:08;;;;;;;9.13;2.05;;;;;;;;;;5026231;28;20038;-40
2022/07/09 01:55:34;;;;;;;7.35;2.28;;;;;;;;;;5025759;28;20025;-41
2022/07/09 01:58:00;;;;;;;5.40;2.10;;;;;;;;;;5024682;28;20053;-44
2022/07/09 02:00:27;;;;;;;8.32;2.38;;;;;;;;;;5027886;28;21461;-44
2022/07/09 02:02:54;;;;;;;2.95;2.30;;;;;;;;;;5024662;28;20029;-48
2022/07/09 02:05:20;;;;;;;3.30;2.50;;;;;;;;;;5022709;28;20048;-47
2022/07/09 02:07:46;;;;;;;9.48;2.30;;;;;;;;;;5027182;28;20033;-42
2022/07/09 02:10:12;;;;;;;6.80;2.35;;;;;;;;;;5028264;28;20043;-41
2022/07/09 02:12:38;;;;;;;3.20;2.47;;;;;;;;;;5026804;28;20120;-42
2022/07/09 02:15:06;;;;;;;11.20;2.20;;;;;;;;;;5027005;28;20030;-43
2022/07/09 02:17:32;;;;;;;4.75;2.22;;;;;;;;;;5027645;28;20033;-41
2022/07/09 02:19:58;;;;;;;18.70;2.45;;;;;;;;;;5023480;28;20475;-42
2022/07/09 02:22:24;;;;;;;4.03;2.35;;;;;;;;;;5024011;28;20124;-46
2022/07/09 02:24:50;;;;;;;8.88;2.58;;;;;;;;;;5025056;28;20033;-41
2022/07/09 02:27:15;;;;;;;5.47;2.25;;;;;;;;;;5024447;28;21719;-43
2022/07/09 02:29:41;;;;;;;6.72;2.80;;;;;;;;;;5027781;28;20018;-46
2022/07/09 02:32:10;;;;;;;9.93;2.35;;;;;;;;;;5027292;28;20052;-46
2022/07/09 02:34:37;;;;;;;2.88;2.25;;;;;;;;;;5026945;28;20581;-41
2022/07/09 02:37:04;;;;;;;4.43;2.40;;;;;;;;;;5025081;28;20044;-44
2022/07/09 02:39:30;;;;;;;12.48;2.50;;;;;;;;;;5025882;28;21024;-41
2022/07/09 02:41:56;;;;;;;2.83;1.98;;;;;;;;;;5025373;28;20405;-43
2022/07/09 02:44:21;;;;;;;4.85;2.20;;;;;;;;;;5024725;28;20029;-44
2022/07/09 02:46:47;;;;;;;6.20;2.47;;;;;;;;;;5024261;28;20025;-47
2022/07/09 02:49:13;;;;;;;2.90;2.20;;;;;;;;;;5027125;28;20024;-43
2022/07/09 02:51:38;;;;;;;4.63;2.50;;;;;;;;;;5026029;28;20481;-47
2022/07/09 02:54:04;;;;;;;6.78;2.42;;;;;;;;;;5025936;28;20068;-46
2022/07/09 02:56:31;;;;;;;7.80;3.33;;;;;;;;;;5022470;28;20042;-41
2022/07/09 02:58:57;;;;;;;8.63;2.22;;;;;;;;;;5026150;28;20033;-41
2022/07/09 03:01:22;;;;;;;5.38;2.30;;;;;;;;;;5025468;28;20040;-41
2022/07/09 03:03:48;;;;;;;6.70;2.47;;;;;;;;;;5023291;28;20040;-41
2022/07/09 03:06:13;;;;;;;11.15;2.33;;;;;;;;;;5020011;28;20042;-42
2022/07/09 03:08:39;;;;;;;7.82;2.30;;;;;;;;;;5024487;28;20048;-42
2022/07/09 03:11:09;;;;;;;5.00;2.78;;;;;;;;;;5023635;28;21746;-42
2022/07/09 03:13:35;;;;;;;9.27;2.42;;;;;;;;;;5027588;28;20077;-43
2022/07/09 03:16:02;;;;;;;5.72;2.50;;;;;;;;;;5023677;28;20107;-41
2022/07/09 03:18:29;;;;;;;7.25;2.20;;;;;;;;;;5025579;28;20087;-40
2022/07/09 03:20:55;;;;;;;4.15;2.30;;;;;;;;;;5024920;28;20040;-42
2022/07/09 03:23:21;;;;;;;8.52;2.88;;;;;;;;;;5023734;28;20497;-41
2022/07/09 03:25:47;;;;;;;4.20;2.30;;;;;;;;;;5025649;28;20033;-41
2022/07/09 03:28:12;;;;;;;6.47;2.40;;;;;;;;;;5024597;28;20057;-40
2022/07/09 03:30:38;;;;;;;14.98;2.70;;;;;;;;;;5026072;28;20549;-41
2022/07/09 03:33:04;;;;;;;8.75;2.30;;;;;;;;;;5024547;28;20474;-41
2022/07/09 03:35:29;;;;;;;9.38;2.55;;;;;;;;;;5024293;28;20033;-41
2022/07/09 03:37:55;;;;;;;6.00;2.15;;;;;;;;;;5023280;28;20037;-42
2022/07/09 03:40:21;;;;;;;2.70;1.90;;;;;;;;;;5026022;28;20032;-39
2022/07/09 03:42:48;;;;;;;6.75;2.40;;;;;;;;;;5025970;28;20099;-42
2022/07/09 03:45:14;;;;;;;6.18;2.10;;;;;;;;;;5024130;28;20394;-41
2022/07/09 03:47:40;;;;;;;5.40;1.95;;;;;;;;;;5025356;28;20037;-42
2022/07/09 03:50:06;;;;;;;4.30;2.17;;;;;;;;;;5023760;28;20018;-42
2022/07/09 03:52:32;;;;;;;7.95;2.28;;;;;;;;;;5020951;28;20071;-41
2022/07/09 03:54:58;;;;;;;1.88;1.67;;;;;;;;;;5021313;28;20053;-40
2022/07/09 03:57:23;;;;;;;8.95;2.10;;;;;;;;;;5026441;28;20466;-41
2022/07/09 03:59:49;;;;;;;5.40;2.03;;;;;;;;;;5023777;28;20029;-41
2022/07/09 04:02:15;;;;;;;3.83;2.25;;;;;;;;;;5026356;28;20034;-41
2022/07/09 04:04:41;;;;;;;2.72;1.92;;;;;;;;;;5024602;28;20018;-43
2022/07/09 04:07:06;;;;;;;4.20;2.35;;;;;;;;;;5026710;28;20052;-42
2022/07/09 04:09:32;;;;;;;12.35;2.10;;;;;;;;;;5029222;28;20406;-41
2022/07/09 04:11:58;;;;;;;4.35;2.00;;;;;;;;;;5027495;28;20052;-41
2022/07/09 04:14:36;;;;;;;4.07;2.22;;;;;;;;;;5029341;28;20034;-40
2022/07/09 04:17:03;;;;;;;3.63;2.15;;;;;;;;;;5028311;28;20026;-40
2022/07/09 04:19:29;;;;;;;9.00;2.22;;;;;;;;;;5029558;28;20125;-41
2022/07/09 04:21:55;;;;;;;12.15;2.30;;;;;;;;;;5027068;28;20247;-41
2022/07/09 04:24:21;;;;;;;6.93;2.60;;;;;;;;;;5028186;28;20041;-40
2022/07/09 04:26:47;;;;;;;10.15;2.65;;;;;;;;;;5027230;28;20041;-40
2022/07/09 04:29:12;;;;;;;9.38;2.67;;;;;;;;;;5029566;28;20386;-42
2022/07/09 04:31:38;;;;;;;10.25;2.47;;;;;;;;;;5028443;28;20033;-48
2022/07/09 04:34:04;;;;;;;8.68;2.50;;;;;;;;;;5029255;28;20029;-41
2022/07/09 04:36:31;;;;;;;2.58;2.13;;;;;;;;;;5027668;28;20486;-40
2022/07/09 04:38:57;;;;;;;4.05;2.17;;;;;;;;;;5026680;28;20026;-42
2022/07/09 04:41:23;;;;;;;5.78;2.25;;;;;;;;;;5028348;28;20040;-40
2022/07/09 04:43:48;;;;;;;8.43;2.45;;;;;;;;;;5024829;28;20387;-41
2022/07/09 04:46:16;;;;;;;5.32;2.53;;;;;;;;;;5026190;28;20037;-42
2022/07/09 04:48:41;;;;;;;8.00;2.22;;;;;;;;;;5024936;28;20107;-41
2022/07/09 04:51:07;;;;;;;5.63;2.28;;;;;;;;;;5028419;28;20053;-41
2022/07/09 04:53:33;;;;;;;4.32;2.47;;;;;;;;;;5026787;28;20026;-41
2022/07/09 04:55:59;;;;;;;6.13;2.20;;;;;;;;;;5028739;28;20406;-40
2022/07/09 04:58:24;;;;;;;10.23;1.88;;;;;;;;;;5027897;28;20040;-41
2022/07/09 05:00:50;;;;;;;6.22;2.00;;;;;;;;;;5027433;28;20045;-47
2022/07/09 05:03:16;;;;;;;7.28;2.97;;;;;;;;;;5025247;28;20095;-41
2022/07/09 05:05:43;;;;;;;5.55;2.10;;;;;;;;;;5025397;28;20501;-41
2022/07/09 05:08:08;;;;;;;3.83;1.90;;;;;;;;;;5027439;28;20081;-41
2022/07/09 05:10:34;;;;;;;5.13;2.22;;;;;;;;;;5027710;28;20079;-42
2022/07/09 05:13:01;;;;;;;3.13;2.40;;;;;;;;;;5026059;28;20037;-42
2022/07/09 05:15:27;;;;;;;7.78;2.00;;;;;;;;;;5026754;28;20038;-40
2022/07/09 05:17:53;;;;;;;4.38;2.00;;;;;;;;;;5023835;28;20033;-42
2022/07/09 05:20:18;;;;;;;7.72;2.00;;;;;;;;;;5027405;28;20029;-43
2022/07/09 05:22:44;;;;;;;7.00;2.10;;;;;;;;;;5026286;28;20140;-42
2022/07/09 05:25:10;;;;;;;4.00;1.90;;;;;;;;;;5028537;28;20025;-41
2022/07/09 05:27:44;;;;;;;5.15;1.92;;;;;;;;;;5025077;28;20510;-41
2022/07/09 05:30:12;;;;;;;4.97;1.90;;;;;;;;;;5022870;28;20055;-41
2022/07/09 05:32:38;;;;;;;9.95;2.17;;;;;;;;;;5026555;28;20032;-41
2022/07/09 05:35:04;;;;;;;3.10;1.80;;;;;;;;;;5023794;28;20026;-41
2022/07/09 05:37:30;;;;;;;3.50;1.85;;;;;;;;;;5025646;28;20564;-42
2022/07/09 05:39:57;;;;;;;5.95;2.00;;;;;;;;;;5021845;28;20045;-43
2022/07/09 05:42:23;;;;;;;9.85;2.20;;;;;;;;;;5024750;28;20017;-41
2022/07/09 05:44:49;;;;;;;5.65;2.53;;;;;;;;;;5025593;28;20485;-43
2022/07/09 05:47:15;;;;;;;5.25;2.20;;;;;;;;;;5026336;28;20068;-40
2022/07/09 05:49:41;;;;;;;8.93;2.47;;;;;;;;;;5027607;28;20026;-41
2022/07/09 05:52:07;;;;;;;8.93;2.40;;;;;;;;;;5027784;28;20435;-41
2022/07/09 05:54:33;;;;;;;6.50;2.30;;;;;;;;;;5026436;28;20029;-41
2022/07/09 05:56:58;;;;;;;9.00;1.95;;;;;;;;;;5023420;28;20437;-42
2022/07/09 05:59:24;;;;;;;8.68;1.85;;;;;;;;;;5026044;28;20056;-44
2022/07/09 06:01:50;;;;;;;5.60;2.38;;;;;;;;;;5026899;28;20478;-41
2022/07/09 06:04:16;;;;;;;3.75;1.92;;;;;;;;;;5028640;28;20029;-40
2022/07/09 06:06:41;;;;;;;5.95;2.00;;;;;;;;;;5020231;28;20091;-41
2022/07/09 06:09:07;;;;;;;12.90;1.80;;;;;;;;;;5025900;28;20103;-40
2022/07/09 06:11:33;;;;;;;6.72;2.15;;;;;;;;;;5023950;28;20052;-44
2022/07/09 06:13:59;;;;;;;1.80;1.70;;;;;;;;;;5022125;28;20041;-43
2022/07/09 06:16:25;;;;;;;4.20;1.80;;;;;;;;;;5026872;28;20017;-42
2022/07/09 06:18:50;;;;;;;5.18;2.30;;;;;;;;;;5023565;28;20454;-41
2022/07/09 06:21:16;;;;;;;5.50;2.38;;;;;;;;;;5024633;28;20044;-42
2022/07/09 06:23:42;;;;;;;3.30;2.00;;;;;;;;;;5026353;28;20030;-43
2022/07/09 06:26:08;;;;;;;4.53;2.40;;;;;;;;;;5027153;28;20116;-43
2022/07/09 06:28:36;;;;;;;2.47;2.25;;;;;;;;;;5025536;28;20040;-41
2022/07/09 06:31:02;;;;;;;5.78;2.25;;;;;;;;;;5025873;28;20092;-41
2022/07/09 06:33:28;;;;;;;5.28;2.17;;;;;;;;;;5026543;28;20065;-43
2022/07/09 06:35:53;;;;;;;6.85;2.10;;;;;;;;;;5026470;28;20075;-42
2022/07/09 06:38:20;;;;;;;4.63;2.00;;;;;;;;;;5022526;28;20034;-40
2022/07/09 06:40:46;;;;;;;3.92;1.70;;;;;;;;;;5026894;28;20044;-41
2022/07/09 06:43:12;;;;;;;7.43;2.08;;;;;;;;;;5027742;28;20079;-41
2022/07/09 06:45:38;;;;;;;6.63;3.08;;;;;;;;;;5025799;28;20033;-42
2022/07/09 06:48:04;;;;;;;3.90;1.90;;;;;;;;;;5025851;28;20036;-42
2022/07/09 06:50:30;;;;;;;2.42;2.00;;;;;;;;;;5027513;28;20433;-42
2022/07/09 06:52:56;;;;;;;3.33;1.98;;;;;;;;;;5026542;28;20030;-44
2022/07/09 06:55:21;;;;;;;4.28;1.92;;;;;;;;;;5028028;28;20100;-41
2022/07/09 06:57:47;;;;;;;9.32;2.13;;;;;;;;;;5023248;28;20076;-41
2022/07/09 07:00:13;;;;;;;5.28;2.30;;;;;;;;;;5025104;28;20029;-41
2022/07/09 07:02:39;;;;;;;6.40;2.10;;;;;;;;;;5023748;28;20029;-46
2022/07/09 07:05:06;;;;;;;4.90;2.28;;;;;;;;;;5024091;28;20525;-43
2022/07/09 07:07:32;;;;;;;4.15;2.40;;;;;;;;;;5026338;28;20141;-41
2022/07/09 07:09:57;;;;;;;6.68;2.40;;;;;;;;;;5051300;28;20033;-42
2022/07/09 07:12:23;;;;;;;9.93;2.25;;;;;;;;;;5025267;28;20030;-42
2022/07/09 07:14:50;;;;;;;7.80;2.30;;;;;;;;;;5026836;28;20040;-41
2022/07/09 07:17:16;;;;;;;3.35;1.92;;;;;;;;;;5022165;28;20038;-42
2022/07/09 07:19:42;;;;;;;9.35;2.60;;;;;;;;;;5023944;28;20029;-41
2022/07/09 07:22:08;;;;;;;2.40;1.90;;;;;;;;;;5025312;28;20457;-43
2022/07/09 07:24:33;;;;;;;9.65;2.53;;;;;;;;;;5023702;28;20029;-43
2022/07/09 07:26:59;;;;;;;7.93;2.30;;;;;;;;;;5022356;28;20069;-41
2022/07/09 07:29:26;;;;;;;4.93;2.30;;;;;;;;;;5019343;28;20090;-44
2022/07/09 07:31:52;;;;;;;5.68;2.20;;;;;;;;;;5015460;28;28982;-41
2022/07/09 07:34:22;;;;;;;2.55;2.10;;;;;;;;;;5023962;28;20506;-47
2022/07/09 07:36:49;;;;;;;6.47;2.28;;;;;;;;;;5025305;28;20061;-47
2022/07/09 07:39:14;;;;;;;4.38;2.00;;;;;;;;;;5018621;28;20160;-41
2022/07/09 07:41:40;;;;;;;5.97;2.50;;;;;;;;;;5019515;28;20739;-42
2022/07/09 07:44:06;;;;;;;5.93;2.08;;;;;;;;;;5022424;28;20033;-41
2022/07/09 07:46:31;;;;;;;4.13;2.03;;;;;;;;;;5023980;28;20048;-41
2022/07/09 07:48:57;;;;;;;2.63;1.60;;;;;;;;;;5018295;28;20041;-41
2022/07/09 07:51:24;;;;;;;2.20;1.88;;;;;;;;;;5016896;28;20061;-41
2022/07/09 07:53:50;;;;;;;4.30;1.90;;;;;;;;;;5022270;28;20048;-42
2022/07/09 07:56:16;;;;;;;3.70;1.83;;;;;;;;;;5018315;28;20037;-41
2022/07/09 07:58:41;;;;;;;7.78;2.08;;;;;;;;;;5018302;28;20402;-46
2022/07/09 08:01:08;;;;;;;10.65;1.90;;;;;;;;;;5021169;28;20176;-41
2022/07/09 08:03:33;;;;;;;5.65;2.13;;;;;;;;;;5019285;28;20042;-41
2022/07/09 08:06:00;;;;;;;7.57;2.28;;;;;;;;;;5033999;28;20612;-41
2022/07/09 08:08:26;;;;;;;6.32;2.33;;;;;;;;;;5021206;28;20037;-42
2022/07/09 08:10:52;;;;;;;4.93;2.10;;;;;;;;;;5019844;28;20120;-42
2022/07/09 08:13:18;;;;;;;3.15;1.85;;;;;;;;;;5023630;28;20143;-44
2022/07/09 08:15:44;;;;;;;7.05;2.30;;;;;;;;;;5025958;28;20060;-42
2022/07/09 08:18:13;;;;;;;4.72;1.55;;;;;;;;;;5024011;28;20474;-43
2022/07/09 08:20:40;;;;;;;4.78;1.77;;;;;;;;;;5023679;28;20030;-43
2022/07/09 08:23:06;;;;;;;11.13;2.17;;;;;;;;;;5023083;28;20044;-42
2022/07/09 08:25:32;;;;;;;4.93;2.53;;;;;;;;;;5028748;28;20029;-44
2022/07/09 08:27:58;;;;;;;9.80;2.25;;;;;;;;;;5025994;28;20057;-42
2022/07/09 08:30:24;;;;;;;5.20;2.00;;;;;;;;;;5038132;28;20504;-43
2022/07/09 08:32:49;;;;;;;5.65;2.13;;;;;;;;;;5026333;28;20373;-45
2022/07/09 08:35:15;;;;;;;4.50;2.20;;;;;;;;;;5025981;28;20048;-43
2022/07/09 08:37:40;;;;;;;4.53;2.40;;;;;;;;;;5022212;28;20056;-41
2022/07/09 08:40:07;;;;;;;5.05;2.20;;;;;;;;;;5026188;28;20426;-41
2022/07/09 08:42:33;;;;;;;4.95;2.70;;;;;;;;;;5027034;28;20025;-44
2022/07/09 08:45:01;;;;;;;7.40;2.22;;;;;;;;;;5027531;28;20033;-41
2022/07/09 08:47:29;;;;;;;8.32;1.90;;;;;;;;;;5023466;28;20033;-42
2022/07/09 08:49:57;;;;;;;5.00;1.98;;;;;;;;;;5026074;28;20559;-41
2022/07/09 08:52:27;;;;;;;4.88;2.20;;;;;;;;;;5039002;28;20055;-42
2022/07/09 08:54:53;;;;;;;3.45;1.90;;;;;;;;;;5024989;28;20017;-42
2022/07/09 08:57:19;;;;;;;7.35;2.20;;;;;;;;;;5025333;28;20033;-41
2022/07/09 08:59:45;;;;;;;9.00;2.17;;;;;;;;;;5026593;28;20033;-41
2022/07/09 09:02:13;;;;;;;5.43;2.58;;;;;;;;;;5024870;28;20037;-41
2022/07/09 09:04:40;;;;;;;4.65;2.20;;;;;;;;;;5027119;28;20037;-41
2022/07/09 09:07:16;;;;;;;8.15;2.55;;;;;;;;;;5024440;28;20065;-41
2022/07/09 09:09:42;;;;;;;9.98;2.78;;;;;;;;;;5020314;28;20030;-41
2022/07/09 09:12:09;;;;;;;9.85;2.53;;;;;;;;;;5026397;28;20398;-41
2022/07/09 09:14:34;;;;;;;5.43;2.40;;;;;;;;;;5025790;28;20037;-41
2022/07/09 09:17:11;;;;;;;3.75;1.70;;;;;;;;;;5027805;28;20034;-41
2022/07/09 09:19:38;;;;;;;3.67;2.15;;;;;;;;;;5028347;28;20033;-42
2022/07/09 09:22:04;;;;;;;2.63;2.00;;;;;;;;;;5028304;28;20846;-41
2022/07/09 09:24:30;;;;;;;6.82;2.10;;;;;;;;;;5022356;28;20902;-44
2022/07/09 09:27:06;;;;;;;4.03;1.55;;;;;;;;;;5024005;28;20033;-42
2022/07/09 09:29:33;;;;;;;7.28;1.70;;;;;;;;;;5024845;28;20041;-42
2022/07/09 09:32:09;;;;;;;4.63;2.22;;;;;;;;;;5025986;28;20033;-42
2022/07/09 09:34:41;;;;;;;7.82;1.95;;;;;;;;;;5027649;28;20167;-41
2022/07/09 09:37:08;;;;;;;9.30;2.38;;;;;;;;;;5026568;28;20509;-41
2022/07/09 09:39:35;;;;;;;5.13;1.70;;;;;;;;;;5024883;28;20037;-42
2022/07/09 09:42:03;;;;;;;1.95;1.23;;;;;;;;;;5024266;28;20383;-42
2022/07/09 09:44:40;;;;;;;1.10;1.10;;;;;;;;;;5024981;28;20100;-42
2022/07/09 09:47:07;;;;;;;2.58;1.25;;;;;;;;;;5026043;28;20047;-43
2022/07/09 09:49:34;;;;;;;3.00;1.20;;;;;;;;;;5027733;28;20032;-42
2022/07/09 09:52:06;;;;;;;10.80;1.90;;;;;;;;;;5024515;28;20418;-42
2022/07/09 09:54:35;;;;;;;;;;;;;;;;;;5025284;28;20497;-42
2022/07/09 09:57:09;;;;;;;3.53;1.10;;;;;;;;;;5028022;28;20010;-41
2022/07/09 09:59:37;;;;;;;4.10;1.60;;;;;;;;;;5024220;28;20029;-42
2022/07/09 10:02:09;;;;;;;6.70;1.73;;;;;;;;;;5023829;28;20180;-41
2022/07/09 10:04:39;;;;;;;9.68;1.92;;;;;;;;;;5024249;28;20036;-44
2022/07/09 10:07:08;;;;;;;7.22;2.30;;;;;;;;;;5026232;28;20053;-42
2022/07/09 10:09:34;;;;;;;3.10;1.60;;;;;;;;;;5022419;28;20046;-42
2022/07/09 10:12:00;;;;;;;3.97;1.40;;;;;;;;;;5026255;28;20032;-42
2022/07/09 10:14:25;;;;;;;4.85;1.55;;;;;;;;;;5025650;28;20398;-43
2022/07/09 10:16:52;;;;;;;1.65;1.30;;;;;;;;;;5024827;28;20132;-41
2022/07/09 10:19:25;;;;;;;1.70;1.58;;;;;;;;;;5024927;28;20060;-41
2022/07/09 10:21:55;;;;;;;6.53;1.48;;;;;;;;;;5022859;28;20112;-42
2022/07/09 10:24:28;;;;;;;3.38;1.38;;;;;;;;;;5022331;28;20382;-43
2022/07/09 10:27:08;;;;;;;7.13;1.55;;;;;;;;;;5024902;28;20037;-42
2022/07/09 10:29:36;;;;;;;6.15;1.30;;;;;;;;;;5024954;28;20496;-42
2022/07/09 10:32:03;;;;;;;1.45;1.30;;;;;;;;;;5023552;28;20040;-41
2022/07/09 10:34:44;;;;;;;5.38;1.70;;;;;;;;;;5025705;28;20112;-42
2022/07/09 10:37:09;;;;;;;5.10;1.50;;;;;;;;;;5025360;28;20116;-44
2022/07/09 10:39:35;;;;;;;5.60;1.77;;;;;;;;;;5025157;28;20463;-42
2022/07/09 10:42:05;;;;;;;4.82;1.38;;;;;;;;;;5023848;28;20033;-41
2022/07/09 10:44:39;;;;;;;7.13;2.20;;;;;;;;;;5024982;28;20036;-42
2022/07/09 10:47:05;;;;;;;4.95;1.63;;;;;;;;;;5026249;28;20034;-44
2022/07/09 10:49:34;;;;;;;4.28;1.80;;;;;;;;;;5025668;28;20043;-41
2022/07/09 10:52:00;;;;;;;2.53;1.50;;;;;;;;;;5024418;28;20042;-41
2022/07/09 10:54:26;;;;;;;1.45;1.25;;;;;;;;;;5024311;28;20379;-41
2022/07/09 10:56:55;;;;;;;5.70;1.50;;;;;;;;;;5019749;28;20033;-41
2022/07/09 10:59:21;;;;;;;5.07;1.60;;;;;;;;;;5023013;28;20053;-42
2022/07/09 11:01:48;;;;;;;2.50;1.67;;;;;;;;;;5025621;28;20033;-42
2022/07/09 11:04:31;;;;;;;5.57;1.55;;;;;;;;;;5025700;28;20035;-43
2022/07/09 11:06:58;;;;;;;2.97;1.45;;;;;;;;;;5024612;28;20057;-41
2022/07/09 11:09:30;;;;;;;5.40;1.92;;;;;;;;;;5025345;28;20505;-42
2022/07/09 11:11:56;;;;;;;2.55;1.42;;;;;;;;;;5025346;28;20684;-41
2022/07/09 11:14:22;;;;;;;2.25;1.40;;;;;;;;;;5020200;28;20025;-41
2022/07/09 11:16:56;;;;;;;4.78;1.60;;;;;;;;;;5026763;28;20025;-42
2022/07/09 11:19:22;;;;;;;5.20;1.73;;;;;;;;;;5028358;28;20472;-42
2022/07/09 11:21:49;;;;;;;3.75;1.58;;;;;;;;;;5027282;28;20048;-42
2022/07/09 11:24:21;;;;;;;4.38;1.70;;;;;;;;;;5030058;28;20029;-43
2022/07/09 11:26:47;;;;;;;4.57;1.60;;;;;;;;;;5029344;28;20391;-41
2022/07/09 11:29:14;;;;;;;2.13;1.27;;;;;;;;;;5024732;28;20044;-43
2022/07/09 11:31:50;;;;;;;2.63;1.70;;;;;;;;;;5026886;28;20036;-42
2022/07/09 11:34:16;;;;;;;5.15;1.38;;;;;;;;;;5028340;28;20048;-41
2022/07/09 11:36:48;;;;;;;2.92;1.25;;;;;;;;;;5026970;28;20041;-42
2022/07/09 11:39:29;;;;;;;3.22;1.67;;;;;;;;;;5026633;28;20091;-42
2022/07/09 11:41:59;;;;;;;4.93;1.20;;;;;;;;;;5029711;28;20398;-42
2022/07/09 11:44:35;;;;;;;1.20;1.10;;;;;;;;;;5028342;28;20029;-42
2022/07/09 11:47:10;;;;;;;5.80;1.60;;;;;;;;;;5026379;28;20032;-42
2022/07/09 11:49:39;;;;;;;4.30;1.42;;;;;;;;;;5029091;28;20033;-41
2022/07/09 11:52:19;;;;;;;1.60;1.45;;;;;;;;;;5028637;28;20037;-41
2022/07/09 11:55:05;;;;;;;3.67;1.55;;;;;;;;;;5028441;28;20045;-42
2022/07/09 11:57:36;;;;;;;7.10;1.77;;;;;;;;;;5026048;28;20071;-43
2022/07/09 12:00:21;;;;;;;1.95;1.58;;;;;;;;;;5027990;28;20025;-41
2022/07/09 12:02:47;;;;;;;3.13;1.45;;;;;;;;;;5026867;28;20049;-41
2022/07/09 12:05:25;;;;;;;3.58;1.40;;;;;;;;;;5024051;28;20073;-41
2022/07/09 12:07:52;;;;;;;6.35;1.33;;;;;;;;;;5024130;28;20044;-41
2022/07/09 12:10:27;;;;;;;4.88;1.38;;;;;;;;;;5029556;28;20033;-42
2022/07/09 12:12:53;;;;;;;7.07;1.55;;;;;;;;;;5019827;28;20017;-43
2022/07/09 12:15:18;;;;;;;2.70;1.73;;;;;;;;;;5022406;28;20040;-43
2022/07/09 12:17:44;;;;;;;10.70;1.77;;;;;;;;;;5023746;28;20048;-39
2022/07/09 12:20:10;;;;;;;3.53;1.45;;;;;;;;;;5022888;28;20430;-43
2022/07/09 12:22:36;;;;;;;3.63;1.75;;;;;;;;;;5022980;28;20065;-44
2022/07/09 12:25:03;;;;;;;4.65;1.45;;;;;;;;;;5023335;28;20864;-43
2022/07/09 12:27:28;;;;;;;3.45;1.40;;;;;;;;;;5019269;28;20041;-43
2022/07/09 12:29:54;;;;;;;1.98;1.70;;;;;;;;;;5026690;28;20905;-42
2022/07/09 12:32:20;;;;;;;2.33;1.50;;;;;;;;;;5023047;28;20102;-43
2022/07/09 12:34:45;;;;;;;3.33;1.50;;;;;;;;;;5024558;28;20029;-42
2022/07/09 12:37:11;;;;;;;5.18;1.63;;;;;;;;;;5020730;28;20049;-43
2022/07/09 12:39:37;;;;;;;6.05;1.83;;;;;;;;;;5022570;28;20025;-42
2022/07/09 12:42:03;;;;;;;6.28;1.88;;;;;;;;;;5023622;28;20781;-43
2022/07/09 12:44:29;;;;;;;11.15;1.98;;;;;;;;;;5021045;28;20079;-43
2022/07/09 12:46:54;;;;;;;4.47;1.50;;;;;;;;;;5018707;28;20042;-43
2022/07/09 12:49:20;;;;;;;2.10;1.50;;;;;;;;;;5024424;28;20214;-43
2022/07/09 12:51:46;;;;;;;2.05;1.60;;;;;;;;;;5023389;28;20623;-43
2022/07/09 12:54:12;;;;;;;3.78;1.48;;;;;;;;;;5022778;28;20021;-43
2022/07/09 12:56:39;;;;;;;3.22;1.80;;;;;;;;;;5025560;28;20029;-43
2022/07/09 12:59:04;;;;;;;3.00;1.48;;;;;;;;;;5025505;28;20139;-43
2022/07/09 13:01:30;;;;;;;4.15;1.58;;;;;;;;;;5026659;28;20025;-43
2022/07/09 13:03:56;;;;;;;4.53;1.70;;;;;;;;;;5018872;28;20034;-42
2022/07/09 13:06:31;;;;;;;4.57;1.85;;;;;;;;;;5022102;28;20045;-44
2022/07/09 13:08:57;;;;;;;3.45;1.60;;;;;;;;;;5021817;28;20042;-44
2022/07/09 13:11:23;;;;;;;3.92;1.80;;;;;;;;;;5020301;28;20037;-43
2022/07/09 13:13:49;;;;;;;3.97;1.90;;;;;;;;;;5020661;28;20025;-43
2022/07/09 13:16:15;;;;;;;4.25;2.00;;;;;;;;;;5018403;28;20404;-45
2022/07/09 13:18:40;;;;;;;3.78;2.17;;;;;;;;;;5017868;28;20069;-43
2022/07/09 13:21:06;;;;;;;4.68;1.92;;;;;;;;;;5017871;28;20025;-42
2022/07/09 13:23:32;;;;;;;4.63;1.92;;;;;;;;;;5023866;28;20414;-42
2022/07/09 13:25:58;;;;;;;6.82;2.30;;;;;;;;;;5023224;28;20433;-42
2022/07/09 13:28:24;;;;;;;6.82;2.50;;;;;;;;;;5024585;28;20722;-44
2022/07/09 13:30:50;;;;;;;5.60;2.25;;;;;;;;;;5021765;28;20071;-43
2022/07/09 13:33:16;;;;;;;8.80;2.42;;;;;;;;;;5021050;28;20029;-43
2022/07/09 13:35:42;;;;;;;13.68;2.40;;;;;;;;;;5022343;28;20032;-42
2022/07/09 13:38:08;;;;;;;7.63;2.50;;;;;;;;;;5024896;28;20531;-42
2022/07/09 13:40:33;;;;;;;4.20;2.40;;;;;;;;;;5018684;28;20778;-42
2022/07/09 13:42:59;;;;;;;11.90;2.45;;;;;;;;;;5022049;28;20478;-44
2022/07/09 13:45:27;;;;;;;3.88;1.98;;;;;;;;;;5025466;28;20045;-43
2022/07/09 13:47:52;;;;;;;7.53;1.98;;;;;;;;;;5022038;28;20045;-42
2022/07/09 13:50:18;;;;;;;6.97;2.10;;;;;;;;;;5021175;28;20065;-43
2022/07/09 13:52:44;;;;;;;5.63;2.20;;;;;;;;;;5026538;28;20044;-42
2022/07/09 13:55:10;;;;;;;6.88;2.30;;;;;;;;;;5025356;28;20030;-42
2022/07/09 13:57:36;;;;;;;10.15;2.00;;;;;;;;;;5026277;28;20022;-43
2022/07/09 14:00:05;;;;;;;5.85;1.85;;;;;;;;;;5023256;28;20076;-42
2022/07/09 14:02:34;;;;;;;5.22;1.80;;;;;;;;;;5023702;28;20508;-43
2022/07/09 14:05:01;;;;;;;5.78;1.90;;;;;;;;;;5024864;28;20038;-43
2022/07/09 14:07:27;;;;;;;8.75;1.90;;;;;;;;;;5026742;28;20083;-42
2022/07/09 14:09:53;;;;;;;2.65;2.15;;;;;;;;;;5021787;28;20033;-43
2022/07/09 14:12:18;;;;;;;12.20;1.95;;;;;;;;;;5025716;28;20044;-46
2022/07/09 14:14:44;;;;;;;5.18;1.75;;;;;;;;;;5025972;28;20024;-42
2022/07/09 14:17:10;;;;;;;9.98;2.25;;;;;;;;;;5024464;28;20022;-43
2022/07/09 14:19:36;;;;;;;3.25;1.95;;;;;;;;;;5027218;28;20037;-42
2022/07/09 14:22:03;;;;;;;4.40;2.03;;;;;;;;;;5024511;28;20117;-42
2022/07/09 14:24:28;;;;;;;4.47;1.80;;;;;;;;;;5023661;28;20509;-42
2022/07/09 14:26:54;;;;;;;6.60;1.88;;;;;;;;;;5021553;28;20510;-43
2022/07/09 14:29:20;;;;;;;4.70;1.70;;;;;;;;;;5023939;28;20017;-42
2022/07/09 14:31:46;;;;;;;3.15;1.80;;;;;;;;;;5026537;28;20045;-42
2022/07/09 14:34:11;;;;;;;4.70;2.30;;;;;;;;;;5026483;28;20112;-42
2022/07/09 14:36:37;;;;;;;8.90;2.17;;;;;;;;;;5026351;28;20497;-42
2022/07/09 14:39:03;;;;;;;10.20;2.10;;;;;;;;;;5025771;28;20053;-41
2022/07/09 14:41:29;;;;;;;5.30;1.90;;;;;;;;;;5022362;28;20037;-43